Time;durP1;ratioP1;P1;durP2;ratioP2;P2;SDS_P1;SDS_P2;PMS_P1;PMS_P2;Temp;Humidity;BMP_temperature;BMP_pressure;BME280_temperature;BME280_humidity;BME280_pressure;Samples;Min_cycle;Max_cycle;Signal;HPM_P1;HPM_P2
2021/09/16 01:51:57;;;;;;;7.75;1.50;;;;;;;14.10;100.00;101429.16;2613639;54;20042;-76
2021/09/16 01:54:25;;;;;;;5.85;1.55;;;;;;;14.08;100.00;101433.03;2612499;31;20057;-76
2021/09/16 01:56:54;;;;;;;5.40;1.63;;;;;;;14.13;100.00;101434.31;2612017;36;20118;-80
2021/09/16 01:59:22;;;;;;;7.53;1.60;;;;;;;14.12;100.00;101437.13;2611459;36;20110;-76
2021/09/16 02:01:50;;;;;;;4.80;1.40;;;;;;;14.06;100.00;101437.72;2611522;36;20371;-76
2021/09/16 02:04:18;;;;;;;6.07;1.47;;;;;;;14.12;100.00;101431.72;2612669;36;20455;-76
2021/09/16 02:06:47;;;;;;;9.52;1.73;;;;;;;14.08;100.00;101424.91;2613325;36;20167;-77
2021/09/16 02:09:17;;;;;;;6.40;1.52;;;;;;;14.04;100.00;101434.31;2612087;36;20539;-78
2021/09/16 02:11:53;;;;;;;8.63;1.98;;;;;;;14.06;100.00;101426.88;2612296;36;20074;-76
2021/09/16 02:14:21;;;;;;;8.00;1.92;;;;;;;14.02;100.00;101429.03;2630398;36;20058;-76
2021/09/16 02:16:49;;;;;;;4.32;1.50;;;;;;;14.01;100.00;101433.56;2612112;36;20175;-79
2021/09/16 02:19:17;;;;;;;5.95;2.22;;;;;;;14.00;100.00;101428.31;2612203;31;20616;-77
2021/09/16 02:21:46;;;;;;;6.20;2.35;;;;;;;13.99;100.00;101430.19;2612386;36;20118;-75
2021/09/16 02:24:14;;;;;;;5.25;1.90;;;;;;;14.02;100.00;101432.59;2613031;36;20470;-76
2021/09/16 02:26:45;;;;;;;4.53;1.70;;;;;;;13.97;100.00;101432.19;2611753;36;20035;-76
2021/09/16 02:29:13;;;;;;;8.20;2.13;;;;;;;14.02;100.00;101429.88;2612304;36;20623;-75
2021/09/16 02:32:13;;;;;;;5.85;1.83;;;;;;;14.02;100.00;101435.28;2630481;36;20095;-75
2021/09/16 02:45:19;;;;;;;9.73;3.53;;;;;;;14.08;100.00;101438.44;2648729;36;20519;-71
2021/09/16 03:00:26;;;;;;;5.20;1.90;;;;;;;13.95;100.00;101445.00;2633349;36;20074;-70
2021/09/16 03:06:42;;;;;;;6.80;2.00;;;;;;;13.91;100.00;101458.94;2647957;36;20078;-70
2021/09/16 03:09:38;;;;;;;7.50;2.25;;;;;;;13.95;100.00;101455.81;2633796;36;20030;-71
2021/09/16 03:12:55;;;;;;;;;;;;;;;;;;;;;
2021/09/16 03:18:48;;;;;;;;;;;;;;;;;;;;;
2021/09/16 03:24:17;;;;;;;10.63;3.53;;;;;;;14.00;100.00;101458.09;2617256;36;20735;-70
2021/09/16 03:26:45;;;;;;;4.63;2.50;;;;;;;14.02;100.00;101456.94;2616861;36;20078;-72
2021/09/16 03:29:30;;;;;;;5.32;2.58;;;;;;;14.01;100.00;101462.50;2634191;36;20169;-72
2021/09/16 03:36:46;;;;;;;;;;;;;;;;;;;;;
2021/09/16 03:39:18;;;;;;;6.93;2.40;;;;;;;14.19;100.00;101470.75;2652441;36;20844;-71
2021/09/16 03:42:32;;;;;;;6.88;2.60;;;;;;;14.24;100.00;101476.59;2633489;36;20515;-73
2021/09/16 03:45:01;;;;;;;4.45;2.00;;;;;;;14.22;100.00;101478.56;2632447;31;20042;-76
2021/09/16 03:47:29;;;;;;;11.85;2.83;;;;;;;14.25;100.00;101482.84;2616614;36;20034;-79
2021/09/16 03:49:58;;;;;;;9.32;2.15;;;;;;;14.31;100.00;101477.72;2616214;36;20025;-76
2021/09/16 03:52:28;;;;;;;6.10;2.30;;;;;;;14.27;100.00;101468.19;2616710;36;20030;-74
2021/09/16 03:55:10;;;;;;;8.50;2.40;;;;;;;14.33;100.00;101475.72;2617176;36;20057;-75
2021/09/16 03:57:44;;;;;;;9.57;2.50;;;;;;;14.37;100.00;101481.72;2633827;36;20045;-74
2021/09/16 04:00:26;;;;;;;5.68;1.95;;;;;;;14.31;100.00;101471.44;2634761;36;20042;-74
2021/09/16 04:02:55;;;;;;;9.45;2.25;;;;;;;14.28;100.00;101472.59;2616107;36;20022;-74
2021/09/16 04:05:24;;;;;;;12.60;2.50;;;;;;;14.35;100.00;101487.28;2613712;36;20057;-73
2021/09/16 04:08:16;;;;;;;8.30;2.60;;;;;;;14.41;100.00;101483.09;2614033;31;20048;-73
2021/09/16 04:10:49;;;;;;;12.25;2.70;;;;;;;14.49;100.00;101491.38;2630930;36;20446;-74
2021/09/16 04:13:19;;;;;;;8.85;2.50;;;;;;;14.51;100.00;101488.50;2613755;36;20162;-73
2021/09/16 04:16:01;;;;;;;8.43;2.28;;;;;;;14.52;100.00;101485.66;2613068;36;20042;-75
2021/09/16 04:18:29;;;;;;;6.10;2.33;;;;;;;14.54;100.00;101485.50;2630894;31;20031;-74
2021/09/16 04:21:12;;;;;;;;;;;;;;;;;;;;;
2021/09/16 04:23:44;;;;;;;6.05;2.45;;;;;;;14.62;100.00;101485.66;2630125;36;20058;-75
2021/09/16 04:26:14;;;;;;;9.38;2.40;;;;;;;14.67;100.00;101488.78;2613253;36;20551;-76
2021/09/16 04:28:45;;;;;;;7.97;2.47;;;;;;;14.66;100.00;101481.66;2614073;36;20455;-77
2021/09/16 04:31:14;;;;;;;10.73;3.13;;;;;;;14.67;100.00;101487.94;2614343;36;20510;-75
2021/09/16 04:33:43;;;;;;;7.40;2.37;;;;;;;14.69;100.00;101492.22;2632026;36;20483;-74
2021/09/16 04:36:44;;;;;;;10.27;2.78;;;;;;;14.66;100.00;101492.50;2631137;36;20426;-76
2021/09/16 04:42:54;;;;;;;8.65;2.95;;;;;;;14.82;100.00;101496.44;2648898;36;20034;-74
2021/09/16 04:46:31;;;;;;;;;;;;;;;;;;;;;
2021/09/16 04:49:06;;;;;;;9.65;2.75;;;;;;;14.80;100.00;101503.88;2630473;36;20146;-76
2021/09/16 04:51:40;;;;;;;7.47;2.40;;;;;;;14.79;100.00;101507.56;2613016;48;20031;-76
2021/09/16 04:54:13;;;;;;;10.57;3.00;;;;;;;14.85;100.00;101506.97;2649761;36;20023;-75
2021/09/16 04:57:10;;;;;;;8.75;2.83;;;;;;;14.84;100.00;101507.97;2631470;36;20447;-76
2021/09/16 05:00:30;;;;;;;;;;;;;;;;;;;;;
2021/09/16 05:03:48;;;;;;;;;;;;;;;;;;;;;
2021/09/16 05:33:07;;;;;;;;;;;;;;;;;;;;;
2021/09/16 05:36:24;;;;;;;7.07;3.05;;;;;;;14.83;100.00;101520.66;2616678;36;20720;-74
2021/09/16 05:41:48;;;;;;;7.10;3.22;;;;;;;14.84;100.00;101533.22;2618030;36;20033;-75
2021/09/16 05:44:23;;;;;;;8.48;3.55;;;;;;;14.75;100.00;101538.66;2618165;36;20025;-74
2021/09/16 20:31:38;;;;;;;25.38;18.42;;;;;;;13.36;100.00;101729.88;2631637;36;20114;-79
2021/09/16 20:34:21;;;;;;;28.92;18.75;;;;;;;13.34;100.00;101735.44;2652606;36;20088;-76
2021/09/16 20:37:02;;;;;;;23.88;17.45;;;;;;;13.31;100.00;101739.22;2632786;36;20022;-77
2021/09/16 20:39:53;;;;;;;25.83;19.60;;;;;;;13.28;100.00;101734.06;2635152;36;20125;-75
2021/09/16 20:42:27;;;;;;;27.60;19.55;;;;;;;13.28;100.00;101734.06;2649190;36;20037;-75
2021/09/16 20:44:59;;;;;;;23.00;17.00;;;;;;;13.31;100.00;101743.78;2632612;36;20538;-75
2021/09/16 20:47:51;;;;;;;24.10;18.33;;;;;;;13.25;100.00;101739.75;2617167;36;20026;-76
2021/09/16 20:50:35;;;;;;;;;;;;;;;;;;;;;
2021/09/16 20:53:09;;;;;;;26.88;19.73;;;;;;;13.17;100.00;101736.81;2634595;36;20046;-78
2021/09/16 20:55:49;;;;;;;23.40;17.85;;;;;;;13.14;100.00;101737.09;2634737;36;20034;-77
2021/09/16 20:58:47;;;;;;;25.52;19.77;;;;;;;13.08;100.00;101730.38;2635810;31;20508;-75
2021/09/16 21:01:15;;;;;;;28.25;21.05;;;;;;;13.07;100.00;101735.91;2633619;36;20045;-75
2021/09/16 21:04:30;;;;;;;32.88;24.50;;;;;;;13.02;100.00;101733.59;2616716;36;20077;-74
2021/09/16 21:10:09;;;;;;;30.98;23.25;;;;;;;12.92;100.00;101738.91;2635011;36;20030;-75
2021/09/16 21:12:50;;;;;;;32.53;23.48;;;;;;;12.92;100.00;101747.03;2635340;36;20454;-75
2021/09/16 21:15:57;;;;;;;31.33;24.10;;;;;;;12.94;100.00;101742.38;2634173;36;20050;-76
2021/09/16 21:19:20;;;;;;;;;;;;;;;;;;;;;
2021/09/16 21:22:10;;;;;;;;;;;;;;;;;;;;;
2021/09/16 21:25:26;;;;;;;34.00;26.58;;;;;;;12.92;100.00;101744.31;2652777;36;20566;-75
2021/09/16 21:28:19;;;;;;;38.20;27.08;;;;;;;12.93;100.00;101751.44;2633837;36;20031;-75
2021/09/16 22:07:52;;;;;;;46.67;31.13;;;;;;;12.56;100.00;101765.34;2634565;36;20026;-76
2021/09/16 22:14:25;;;;;;;;;;;;;;;;;;;;;
2021/09/16 22:20:51;;;;;;;;;;;;;;;;;;;;;
2021/09/16 22:32:11;;;;;;;;;;;;;;;;;;;;;
2021/09/16 22:44:41;;;;;;;;;;;;;;;;;;;;;
